Portada
METAR-TAF:

METAR-TAF

Aeroports :

Cayo Coco, Cuba

latitud: 22-27-40N, longitud: 078-19-42W, altitud: 4 m

Observació

L'informe es va fer fa 32 minuts, a les 20:50 UTC
Vent 13 kt del Est/Nord-Est
Temperatura 26°C
Humitat 58%
Pressió 1016 hPa
Visibilitat: 9000 m
Núvols disperses a una alçada de 2000 ft

METAR: MUCC 212050Z 06013KT 9000 SCT020 26/17 Q1016

Hora: 16:22 (21:22 UTC)

Pronòstic

L'informe es va fer fa 4 hores i 22 minuts, a les 17:00 UTC
Pronòstic vàlid del 21 a les 18 UTC al 22 a les 18 UTC
Vent 10 kt del Est/Nord-Est
Visibilitat: 9000 m
Núvols disperses a una alçada de 2000 ft
Evolucionant progressivament
l' 22 a les 00 UTC al 22 a les 02 UTC
Vent 3 kt amb direcció variable

TAF: MUCC 211700Z 2118/2218 06010KT 9000 SCT020 BECMG 2200/2202 VRB03KT

Observacions i pronòstics meteorològics de més de 4000 aeroports (METAR i TAF).

Les estacions disponibles són els punts grocs i vermells al mapa.

Posi el ratolí al punt desitjat per veure el nom de l'estació.

Feu clic per veure les observacions i els pronòstics meteorològics.

Per canviar el mapa: feu clic els botons verds amb una creu de color negre per apropar; al botó verd amb un guió per allunyar la imatge; o en les fletxes verdes per a mapes adjacents.


METAR-TAF: